sensor_id;sensor_type;location;lat;lon;timestamp;P1;durP1;ratioP1;P2;durP2;ratioP2
71836;SDS011;59686;51.716;7.016;2022-08-19T00:00:34;3.55;;;2.85;;
71836;SDS011;59686;51.716;7.016;2022-08-19T00:03:01;3.38;;;3.08;;
71836;SDS011;59686;51.716;7.016;2022-08-19T00:05:27;3.28;;;2.78;;
71836;SDS011;59686;51.716;7.016;2022-08-19T00:07:52;3.25;;;3.05;;
71836;SDS011;59686;51.716;7.016;2022-08-19T00:10:18;3.45;;;3.15;;
71836;SDS011;59686;51.716;7.016;2022-08-19T00:12:45;3.88;;;2.80;;
71836;SDS011;59686;51.716;7.016;2022-08-19T00:15:12;2.85;;;2.65;;
71836;SDS011;59686;51.716;7.016;2022-08-19T00:17:41;2.55;;;2.35;;
71836;SDS011;59686;51.716;7.016;2022-08-19T00:20:09;4.82;;;3.20;;
71836;SDS011;59686;51.716;7.016;2022-08-19T00:22:37;3.47;;;3.20;;
71836;SDS011;59686;51.716;7.016;2022-08-19T00:25:04;3.28;;;2.95;;
71836;SDS011;59686;51.716;7.016;2022-08-19T00:27:33;3.58;;;2.88;;
71836;SDS011;59686;51.716;7.016;2022-08-19T00:29:59;3.10;;;2.83;;
71836;SDS011;59686;51.716;7.016;2022-08-19T00:32:26;3.30;;;3.00;;
71836;SDS011;59686;51.716;7.016;2022-08-19T00:34:52;3.13;;;2.83;;
71836;SDS011;59686;51.716;7.016;2022-08-19T00:37:22;3.15;;;2.95;;
71836;SDS011;59686;51.716;7.016;2022-08-19T00:39:49;3.00;;;2.70;;
71836;SDS011;59686;51.716;7.016;2022-08-19T00:42:16;2.95;;;2.75;;
71836;SDS011;59686;51.716;7.016;2022-08-19T00:44:43;3.00;;;2.80;;
71836;SDS011;59686;51.716;7.016;2022-08-19T00:47:09;3.10;;;2.72;;
71836;SDS011;59686;51.716;7.016;2022-08-19T00:49:41;4.43;;;3.03;;
71836;SDS011;59686;51.716;7.016;2022-08-19T00:52:17;3.65;;;3.08;;
71836;SDS011;59686;51.716;7.016;2022-08-19T00:54:54;3.10;;;2.90;;
71836;SDS011;59686;51.716;7.016;2022-08-19T00:57:28;3.33;;;3.03;;
71836;SDS011;59686;51.716;7.016;2022-08-19T00:59:59;3.28;;;2.97;;
71836;SDS011;59686;51.716;7.016;2022-08-19T01:02:27;2.95;;;2.75;;
71836;SDS011;59686;51.716;7.016;2022-08-19T01:04:54;4.10;;;3.13;;
71836;SDS011;59686;51.716;7.016;2022-08-19T01:07:20;3.38;;;2.88;;
71836;SDS011;59686;51.716;7.016;2022-08-19T01:09:46;3.25;;;2.95;;
71836;SDS011;59686;51.716;7.016;2022-08-19T01:12:12;3.50;;;3.20;;
71836;SDS011;59686;51.716;7.016;2022-08-19T01:14:39;3.58;;;3.28;;
71836;SDS011;59686;51.716;7.016;2022-08-19T01:19:43;3.05;;;2.85;;
71836;SDS011;59686;51.716;7.016;2022-08-19T01:24:49;3.30;;;3.00;;
71836;SDS011;59686;51.716;7.016;2022-08-19T01:27:15;3.25;;;2.72;;
71836;SDS011;59686;51.716;7.016;2022-08-19T01:29:42;3.65;;;3.00;;
71836;SDS011;59686;51.716;7.016;2022-08-19T01:32:13;4.35;;;3.00;;
71836;SDS011;59686;51.716;7.016;2022-08-19T01:34:41;3.35;;;3.05;;
71836;SDS011;59686;51.716;7.016;2022-08-19T01:37:10;3.25;;;2.92;;
71836;SDS011;59686;51.716;7.016;2022-08-19T01:39:39;4.00;;;3.10;;
71836;SDS011;59686;51.716;7.016;2022-08-19T01:42:06;3.42;;;3.13;;
71836;SDS011;59686;51.716;7.016;2022-08-19T01:44:36;3.50;;;3.20;;
71836;SDS011;59686;51.716;7.016;2022-08-19T01:47:03;4.00;;;3.00;;
71836;SDS011;59686;51.716;7.016;2022-08-19T01:49:29;3.28;;;2.97;;
71836;SDS011;59686;51.716;7.016;2022-08-19T01:51:55;3.55;;;2.90;;
71836;SDS011;59686;51.716;7.016;2022-08-19T01:54:33;3.40;;;3.10;;
71836;SDS011;59686;51.716;7.016;2022-08-19T01:57:01;3.10;;;2.85;;
71836;SDS011;59686;51.716;7.016;2022-08-19T01:59:32;3.10;;;2.90;;
71836;SDS011;59686;51.716;7.016;2022-08-19T02:02:01;3.00;;;2.63;;
71836;SDS011;59686;51.716;7.016;2022-08-19T02:04:28;3.33;;;2.80;;
71836;SDS011;59686;51.716;7.016;2022-08-19T02:06:54;3.50;;;3.20;;
71836;SDS011;59686;51.716;7.016;2022-08-19T02:09:19;4.93;;;2.90;;
71836;SDS011;59686;51.716;7.016;2022-08-19T02:11:45;4.25;;;2.97;;
71836;SDS011;59686;51.716;7.016;2022-08-19T02:14:14;3.08;;;2.80;;
71836;SDS011;59686;51.716;7.016;2022-08-19T02:16:40;4.38;;;2.85;;
71836;SDS011;59686;51.716;7.016;2022-08-19T02:19:06;3.75;;;3.05;;
71836;SDS011;59686;51.716;7.016;2022-08-19T02:21:32;2.90;;;2.70;;
71836;SDS011;59686;51.716;7.016;2022-08-19T02:23:58;3.13;;;2.83;;
71836;SDS011;59686;51.716;7.016;2022-08-19T02:26:24;3.42;;;3.05;;
71836;SDS011;59686;51.716;7.016;2022-08-19T02:28:51;3.58;;;3.10;;
71836;SDS011;59686;51.716;7.016;2022-08-19T02:31:20;2.92;;;2.70;;
71836;SDS011;59686;51.716;7.016;2022-08-19T02:33:47;3.38;;;2.97;;
71836;SDS011;59686;51.716;7.016;2022-08-19T02:36:13;3.05;;;2.85;;
71836;SDS011;59686;51.716;7.016;2022-08-19T02:38:42;3.20;;;2.83;;
71836;SDS011;59686;51.716;7.016;2022-08-19T02:41:13;3.35;;;2.70;;
71836;SDS011;59686;51.716;7.016;2022-08-19T02:43:45;3.90;;;3.10;;
71836;SDS011;59686;51.716;7.016;2022-08-19T02:46:16;3.45;;;3.15;;
71836;SDS011;59686;51.716;7.016;2022-08-19T02:48:48;3.17;;;2.88;;
71836;SDS011;59686;51.716;7.016;2022-08-19T02:51:19;4.03;;;3.00;;
71836;SDS011;59686;51.716;7.016;2022-08-19T02:53:52;3.53;;;2.95;;
71836;SDS011;59686;51.716;7.016;2022-08-19T02:56:18;4.28;;;2.83;;
71836;SDS011;59686;51.716;7.016;2022-08-19T02:58:44;5.90;;;3.00;;
71836;SDS011;59686;51.716;7.016;2022-08-19T03:01:11;3.88;;;2.80;;
71836;SDS011;59686;51.716;7.016;2022-08-19T03:03:45;3.80;;;3.10;;
71836;SDS011;59686;51.716;7.016;2022-08-19T03:06:12;3.65;;;2.85;;
71836;SDS011;59686;51.716;7.016;2022-08-19T03:08:41;4.15;;;3.00;;
71836;SDS011;59686;51.716;7.016;2022-08-19T03:11:12;3.58;;;2.90;;
71836;SDS011;59686;51.716;7.016;2022-08-19T03:13:43;2.80;;;2.60;;
71836;SDS011;59686;51.716;7.016;2022-08-19T03:16:10;6.20;;;2.70;;
71836;SDS011;59686;51.716;7.016;2022-08-19T03:18:37;3.25;;;2.95;;
71836;SDS011;59686;51.716;7.016;2022-08-19T03:21:03;3.28;;;2.63;;
71836;SDS011;59686;51.716;7.016;2022-08-19T03:23:29;3.05;;;2.83;;
71836;SDS011;59686;51.716;7.016;2022-08-19T03:25:55;3.15;;;2.90;;
71836;SDS011;59686;51.716;7.016;2022-08-19T03:28:21;2.78;;;2.58;;
71836;SDS011;59686;51.716;7.016;2022-08-19T03:31:03;4.47;;;3.10;;
71836;SDS011;59686;51.716;7.016;2022-08-19T03:33:32;3.15;;;2.67;;
71836;SDS011;59686;51.716;7.016;2022-08-19T03:36:20;2.72;;;2.53;;
71836;SDS011;59686;51.716;7.016;2022-08-19T03:38:50;3.42;;;3.13;;
71836;SDS011;59686;51.716;7.016;2022-08-19T03:41:27;4.82;;;2.72;;
71836;SDS011;59686;51.716;7.016;2022-08-19T03:43:56;3.92;;;2.95;;
71836;SDS011;59686;51.716;7.016;2022-08-19T03:46:24;4.95;;;2.80;;
71836;SDS011;59686;51.716;7.016;2022-08-19T03:48:52;3.30;;;2.90;;
71836;SDS011;59686;51.716;7.016;2022-08-19T03:51:20;3.20;;;2.90;;
71836;SDS011;59686;51.716;7.016;2022-08-19T03:53:50;3.03;;;2.60;;
71836;SDS011;59686;51.716;7.016;2022-08-19T03:56:17;3.33;;;2.53;;
71836;SDS011;59686;51.716;7.016;2022-08-19T03:58:44;2.88;;;2.60;;
71836;SDS011;59686;51.716;7.016;2022-08-19T04:01:10;3.53;;;3.00;;
71836;SDS011;59686;51.716;7.016;2022-08-19T04:03:38;3.13;;;2.50;;
71836;SDS011;59686;51.716;7.016;2022-08-19T04:08:48;4.10;;;2.90;;
71836;SDS011;59686;51.716;7.016;2022-08-19T04:11:17;2.85;;;2.65;;
71836;SDS011;59686;51.716;7.016;2022-08-19T04:13:46;3.33;;;2.53;;
71836;SDS011;59686;51.716;7.016;2022-08-19T04:16:12;2.83;;;2.63;;
71836;SDS011;59686;51.716;7.016;2022-08-19T04:18:39;3.00;;;2.80;;
71836;SDS011;59686;51.716;7.016;2022-08-19T04:21:05;3.10;;;2.80;;
71836;SDS011;59686;51.716;7.016;2022-08-19T04:23:32;3.35;;;3.00;;
71836;SDS011;59686;51.716;7.016;2022-08-19T04:26:01;3.00;;;2.60;;
71836;SDS011;59686;51.716;7.016;2022-08-19T04:28:27;3.15;;;2.78;;
71836;SDS011;59686;51.716;7.016;2022-08-19T04:30:54;2.70;;;2.50;;
71836;SDS011;59686;51.716;7.016;2022-08-19T04:33:28;2.80;;;2.60;;
71836;SDS011;59686;51.716;7.016;2022-08-19T04:35:54;3.05;;;2.60;;
71836;SDS011;59686;51.716;7.016;2022-08-19T04:38:20;4.47;;;2.92;;
71836;SDS011;59686;51.716;7.016;2022-08-19T04:40:48;2.95;;;2.72;;
71836;SDS011;59686;51.716;7.016;2022-08-19T04:43:34;2.65;;;2.45;;
71836;SDS011;59686;51.716;7.016;2022-08-19T04:46:09;2.88;;;2.42;;
71836;SDS011;59686;51.716;7.016;2022-08-19T04:48:36;2.97;;;2.78;;
71836;SDS011;59686;51.716;7.016;2022-08-19T04:51:05;3.10;;;2.58;;
71836;SDS011;59686;51.716;7.016;2022-08-19T04:53:34;3.55;;;3.00;;
71836;SDS011;59686;51.716;7.016;2022-08-19T04:56:04;4.68;;;2.70;;
71836;SDS011;59686;51.716;7.016;2022-08-19T04:58:32;2.60;;;2.10;;
71836;SDS011;59686;51.716;7.016;2022-08-19T05:00:58;2.72;;;2.53;;
71836;SDS011;59686;51.716;7.016;2022-08-19T05:03:27;2.80;;;2.60;;
71836;SDS011;59686;51.716;7.016;2022-08-19T05:05:58;2.75;;;2.55;;
71836;SDS011;59686;51.716;7.016;2022-08-19T05:08:32;2.58;;;2.38;;
71836;SDS011;59686;51.716;7.016;2022-08-19T05:13:57;2.65;;;2.40;;
71836;SDS011;59686;51.716;7.016;2022-08-19T05:16:23;2.90;;;2.67;;
71836;SDS011;59686;51.716;7.016;2022-08-19T05:18:50;3.60;;;2.72;;
71836;SDS011;59686;51.716;7.016;2022-08-19T05:21:34;4.03;;;2.80;;
71836;SDS011;59686;51.716;7.016;2022-08-19T05:24:20;2.85;;;2.65;;
71836;SDS011;59686;51.716;7.016;2022-08-19T05:26:48;2.92;;;2.70;;
71836;SDS011;59686;51.716;7.016;2022-08-19T05:29:17;2.83;;;2.63;;
71836;SDS011;59686;51.716;7.016;2022-08-19T05:34:17;4.57;;;2.60;;
71836;SDS011;59686;51.716;7.016;2022-08-19T05:36:46;3.00;;;2.70;;
71836;SDS011;59686;51.716;7.016;2022-08-19T05:39:15;2.92;;;2.72;;
71836;SDS011;59686;51.716;7.016;2022-08-19T05:41:45;3.17;;;2.88;;
71836;SDS011;59686;51.716;7.016;2022-08-19T05:44:13;3.38;;;3.08;;
71836;SDS011;59686;51.716;7.016;2022-08-19T05:46:40;3.50;;;3.20;;
71836;SDS011;59686;51.716;7.016;2022-08-19T05:49:08;3.40;;;3.10;;
71836;SDS011;59686;51.716;7.016;2022-08-19T05:51:35;4.50;;;3.05;;
71836;SDS011;59686;51.716;7.016;2022-08-19T05:54:02;3.42;;;2.92;;
71836;SDS011;59686;51.716;7.016;2022-08-19T05:56:29;3.22;;;2.95;;
71836;SDS011;59686;51.716;7.016;2022-08-19T05:58:59;4.50;;;2.95;;
71836;SDS011;59686;51.716;7.016;2022-08-19T06:01:26;3.60;;;3.20;;
71836;SDS011;59686;51.716;7.016;2022-08-19T06:03:52;3.03;;;2.75;;
71836;SDS011;59686;51.716;7.016;2022-08-19T06:06:20;4.15;;;3.80;;
71836;SDS011;59686;51.716;7.016;2022-08-19T06:08:46;6.03;;;3.25;;
71836;SDS011;59686;51.716;7.016;2022-08-19T06:11:28;4.85;;;3.20;;
71836;SDS011;59686;51.716;7.016;2022-08-19T06:14:03;3.83;;;3.42;;
71836;SDS011;59686;51.716;7.016;2022-08-19T06:16:34;8.48;;;3.85;;
71836;SDS011;59686;51.716;7.016;2022-08-19T06:19:02;4.00;;;3.50;;
71836;SDS011;59686;51.716;7.016;2022-08-19T06:21:32;6.07;;;3.30;;
71836;SDS011;59686;51.716;7.016;2022-08-19T06:23:58;4.05;;;3.28;;
71836;SDS011;59686;51.716;7.016;2022-08-19T06:26:24;5.05;;;3.25;;
71836;SDS011;59686;51.716;7.016;2022-08-19T06:28:51;4.45;;;3.53;;
71836;SDS011;59686;51.716;7.016;2022-08-19T06:31:18;5.80;;;3.63;;
71836;SDS011;59686;51.716;7.016;2022-08-19T06:34:03;4.43;;;3.55;;
71836;SDS011;59686;51.716;7.016;2022-08-19T06:36:42;4.82;;;3.78;;
71836;SDS011;59686;51.716;7.016;2022-08-19T06:39:21;6.63;;;3.60;;
71836;SDS011;59686;51.716;7.016;2022-08-19T06:41:50;4.75;;;3.45;;
71836;SDS011;59686;51.716;7.016;2022-08-19T06:44:20;5.57;;;3.78;;
71836;SDS011;59686;51.716;7.016;2022-08-19T06:49:35;5.40;;;3.85;;
71836;SDS011;59686;51.716;7.016;2022-08-19T06:52:03;5.68;;;4.40;;
71836;SDS011;59686;51.716;7.016;2022-08-19T06:54:30;6.03;;;3.80;;
71836;SDS011;59686;51.716;7.016;2022-08-19T06:56:57;4.28;;;3.78;;
71836;SDS011;59686;51.716;7.016;2022-08-19T06:59:45;4.63;;;4.00;;
71836;SDS011;59686;51.716;7.016;2022-08-19T07:04:55;7.32;;;4.50;;
71836;SDS011;59686;51.716;7.016;2022-08-19T07:07:22;6.50;;;3.95;;
71836;SDS011;59686;51.716;7.016;2022-08-19T07:13:04;4.65;;;4.20;;
71836;SDS011;59686;51.716;7.016;2022-08-19T07:15:30;5.90;;;4.53;;
71836;SDS011;59686;51.716;7.016;2022-08-19T07:17:56;5.47;;;4.13;;
71836;SDS011;59686;51.716;7.016;2022-08-19T07:20:22;5.20;;;4.50;;
71836;SDS011;59686;51.716;7.016;2022-08-19T07:22:50;6.03;;;4.28;;
71836;SDS011;59686;51.716;7.016;2022-08-19T07:25:16;5.95;;;4.18;;
71836;SDS011;59686;51.716;7.016;2022-08-19T07:27:43;5.00;;;4.28;;
71836;SDS011;59686;51.716;7.016;2022-08-19T07:30:09;5.07;;;4.57;;
71836;SDS011;59686;51.716;7.016;2022-08-19T07:32:36;5.28;;;4.40;;
71836;SDS011;59686;51.716;7.016;2022-08-19T07:35:02;4.57;;;4.10;;
71836;SDS011;59686;51.716;7.016;2022-08-19T07:37:40;6.00;;;4.80;;
71836;SDS011;59686;51.716;7.016;2022-08-19T07:40:10;5.50;;;4.53;;
71836;SDS011;59686;51.716;7.016;2022-08-19T07:42:47;6.43;;;4.70;;
71836;SDS011;59686;51.716;7.016;2022-08-19T07:45:13;8.75;;;5.20;;
71836;SDS011;59686;51.716;7.016;2022-08-19T07:47:40;5.05;;;4.57;;
71836;SDS011;59686;51.716;7.016;2022-08-19T07:50:08;5.32;;;4.82;;
71836;SDS011;59686;51.716;7.016;2022-08-19T07:52:41;5.47;;;4.43;;
71836;SDS011;59686;51.716;7.016;2022-08-19T07:55:10;5.15;;;4.65;;
71836;SDS011;59686;51.716;7.016;2022-08-19T07:57:36;6.10;;;4.78;;
71836;SDS011;59686;51.716;7.016;2022-08-19T08:08:40;6.78;;;5.05;;
71836;SDS011;59686;51.716;7.016;2022-08-19T08:11:30;6.68;;;4.75;;
71836;SDS011;59686;51.716;7.016;2022-08-19T08:13:56;5.20;;;4.70;;
71836;SDS011;59686;51.716;7.016;2022-08-19T08:19:04;6.28;;;5.32;;
71836;SDS011;59686;51.716;7.016;2022-08-19T08:24:00;6.65;;;5.25;;
71836;SDS011;59686;51.716;7.016;2022-08-19T08:26:26;5.35;;;4.65;;
71836;SDS011;59686;51.716;7.016;2022-08-19T08:29:01;6.95;;;5.40;;
71836;SDS011;59686;51.716;7.016;2022-08-19T08:31:27;7.80;;;5.07;;
71836;SDS011;59686;51.716;7.016;2022-08-19T08:33:55;6.07;;;5.10;;
71836;SDS011;59686;51.716;7.016;2022-08-19T08:36:28;7.65;;;4.95;;
71836;SDS011;59686;51.716;7.016;2022-08-19T08:39:03;9.15;;;5.40;;
71836;SDS011;59686;51.716;7.016;2022-08-19T08:47:23;5.88;;;5.28;;
71836;SDS011;59686;51.716;7.016;2022-08-19T08:52:50;6.60;;;5.70;;
71836;SDS011;59686;51.716;7.016;2022-08-19T08:58:03;9.05;;;5.85;;
71836;SDS011;59686;51.716;7.016;2022-08-19T09:00:42;6.78;;;5.93;;
71836;SDS011;59686;51.716;7.016;2022-08-19T09:03:20;5.95;;;5.35;;
71836;SDS011;59686;51.716;7.016;2022-08-19T09:17:18;8.18;;;6.93;;
71836;SDS011;59686;51.716;7.016;2022-08-19T09:19:59;7.80;;;7.03;;
71836;SDS011;59686;51.716;7.016;2022-08-19T09:22:34;7.60;;;6.80;;
71836;SDS011;59686;51.716;7.016;2022-08-19T09:25:20;8.18;;;6.82;;
71836;SDS011;59686;51.716;7.016;2022-08-19T09:30:42;10.00;;;7.50;;
71836;SDS011;59686;51.716;7.016;2022-08-19T09:33:14;9.68;;;8.32;;
71836;SDS011;59686;51.716;7.016;2022-08-19T09:35:49;10.40;;;9.05;;
71836;SDS011;59686;51.716;7.016;2022-08-19T09:38:18;11.00;;;9.88;;
71836;SDS011;59686;51.716;7.016;2022-08-19T09:40:43;12.35;;;9.27;;
71836;SDS011;59686;51.716;7.016;2022-08-19T09:48:43;10.70;;;9.65;;
71836;SDS011;59686;51.716;7.016;2022-08-19T09:51:11;11.18;;;9.68;;
71836;SDS011;59686;51.716;7.016;2022-08-19T09:53:40;12.65;;;10.60;;
71836;SDS011;59686;51.716;7.016;2022-08-19T09:56:08;11.38;;;9.23;;
71836;SDS011;59686;51.716;7.016;2022-08-19T09:58:40;10.70;;;9.60;;
71836;SDS011;59686;51.716;7.016;2022-08-19T10:01:08;10.85;;;9.52;;
71836;SDS011;59686;51.716;7.016;2022-08-19T10:03:35;12.63;;;9.60;;
71836;SDS011;59686;51.716;7.016;2022-08-19T10:06:02;10.23;;;9.23;;
71836;SDS011;59686;51.716;7.016;2022-08-19T10:08:33;10.48;;;9.48;;
71836;SDS011;59686;51.716;7.016;2022-08-19T10:11:02;9.77;;;8.77;;
71836;SDS011;59686;51.716;7.016;2022-08-19T10:13:29;10.85;;;9.75;;
71836;SDS011;59686;51.716;7.016;2022-08-19T10:16:02;11.43;;;9.52;;
71836;SDS011;59686;51.716;7.016;2022-08-19T10:21:24;11.90;;;8.50;;
71836;SDS011;59686;51.716;7.016;2022-08-19T10:23:55;11.90;;;8.80;;
71836;SDS011;59686;51.716;7.016;2022-08-19T10:26:24;9.65;;;8.65;;
71836;SDS011;59686;51.716;7.016;2022-08-19T10:31:27;11.55;;;9.45;;
71836;SDS011;59686;51.716;7.016;2022-08-19T10:33:55;9.43;;;8.50;;
71836;SDS011;59686;51.716;7.016;2022-08-19T10:36:29;10.23;;;8.82;;
71836;SDS011;59686;51.716;7.016;2022-08-19T10:39:03;9.68;;;8.68;;
71836;SDS011;59686;51.716;7.016;2022-08-19T10:41:32;9.30;;;8.38;;
71836;SDS011;59686;51.716;7.016;2022-08-19T10:46:36;9.77;;;8.77;;
71836;SDS011;59686;51.716;7.016;2022-08-19T10:49:06;11.25;;;8.85;;
71836;SDS011;59686;51.716;7.016;2022-08-19T10:51:37;14.50;;;9.10;;
71836;SDS011;59686;51.716;7.016;2022-08-19T10:54:30;10.60;;;9.25;;
71836;SDS011;59686;51.716;7.016;2022-08-19T10:57:19;10.63;;;9.10;;
71836;SDS011;59686;51.716;7.016;2022-08-19T10:59:45;11.23;;;10.18;;
71836;SDS011;59686;51.716;7.016;2022-08-19T11:02:16;10.55;;;9.07;;
71836;SDS011;59686;51.716;7.016;2022-08-19T11:04:45;10.73;;;8.32;;
71836;SDS011;59686;51.716;7.016;2022-08-19T11:07:16;11.13;;;9.88;;
71836;SDS011;59686;51.716;7.016;2022-08-19T11:09:48;10.50;;;8.82;;
71836;SDS011;59686;51.716;7.016;2022-08-19T11:12:17;10.95;;;9.95;;
71836;SDS011;59686;51.716;7.016;2022-08-19T11:14:44;11.38;;;9.00;;
71836;SDS011;59686;51.716;7.016;2022-08-19T11:17:10;11.65;;;9.82;;
71836;SDS011;59686;51.716;7.016;2022-08-19T11:19:38;14.73;;;10.55;;
71836;SDS011;59686;51.716;7.016;2022-08-19T11:22:07;13.80;;;10.05;;
71836;SDS011;59686;51.716;7.016;2022-08-19T11:24:34;10.65;;;9.43;;
71836;SDS011;59686;51.716;7.016;2022-08-19T11:27:02;10.65;;;8.98;;
71836;SDS011;59686;51.716;7.016;2022-08-19T11:29:30;11.77;;;10.40;;
71836;SDS011;59686;51.716;7.016;2022-08-19T11:31:56;13.18;;;11.45;;
71836;SDS011;59686;51.716;7.016;2022-08-19T11:34:23;12.45;;;11.15;;
71836;SDS011;59686;51.716;7.016;2022-08-19T11:37:00;12.75;;;10.07;;
71836;SDS011;59686;51.716;7.016;2022-08-19T11:39:39;11.32;;;10.23;;
71836;SDS011;59686;51.716;7.016;2022-08-19T11:42:05;14.13;;;11.38;;
71836;SDS011;59686;51.716;7.016;2022-08-19T11:44:53;13.43;;;11.43;;
71836;SDS011;59686;51.716;7.016;2022-08-19T11:47:21;13.13;;;10.93;;
71836;SDS011;59686;51.716;7.016;2022-08-19T11:49:51;14.27;;;10.80;;
71836;SDS011;59686;51.716;7.016;2022-08-19T11:52:18;13.30;;;12.00;;
71836;SDS011;59686;51.716;7.016;2022-08-19T11:54:44;13.80;;;10.57;;
71836;SDS011;59686;51.716;7.016;2022-08-19T11:57:10;13.15;;;11.27;;
71836;SDS011;59686;51.716;7.016;2022-08-19T11:59:49;12.63;;;11.32;;
71836;SDS011;59686;51.716;7.016;2022-08-19T12:02:24;11.90;;;10.60;;
71836;SDS011;59686;51.716;7.016;2022-08-19T12:04:59;11.48;;;10.35;;
71836;SDS011;59686;51.716;7.016;2022-08-19T12:07:28;14.73;;;11.48;;
71836;SDS011;59686;51.716;7.016;2022-08-19T12:10:03;11.52;;;9.77;;
71836;SDS011;59686;51.716;7.016;2022-08-19T12:12:29;10.50;;;9.40;;
71836;SDS011;59686;51.716;7.016;2022-08-19T12:14:57;10.35;;;9.18;;
71836;SDS011;59686;51.716;7.016;2022-08-19T12:17:25;10.50;;;8.75;;
71836;SDS011;59686;51.716;7.016;2022-08-19T12:22:38;9.57;;;8.70;;
71836;SDS011;59686;51.716;7.016;2022-08-19T12:25:08;9.80;;;8.82;;
71836;SDS011;59686;51.716;7.016;2022-08-19T12:27:38;8.73;;;7.82;;
71836;SDS011;59686;51.716;7.016;2022-08-19T12:30:04;10.43;;;8.30;;
71836;SDS011;59686;51.716;7.016;2022-08-19T12:32:31;9.10;;;7.63;;
71836;SDS011;59686;51.716;7.016;2022-08-19T12:34:58;10.82;;;8.05;;
71836;SDS011;59686;51.716;7.016;2022-08-19T12:37:34;8.52;;;7.65;;
71836;SDS011;59686;51.716;7.016;2022-08-19T12:40:00;8.85;;;7.65;;
71836;SDS011;59686;51.716;7.016;2022-08-19T12:45:11;7.60;;;6.80;;
71836;SDS011;59686;51.716;7.016;2022-08-19T12:47:42;7.53;;;6.82;;
71836;SDS011;59686;51.716;7.016;2022-08-19T12:50:08;7.43;;;6.65;;
71836;SDS011;59686;51.716;7.016;2022-08-19T12:52:35;6.95;;;6.13;;
71836;SDS011;59686;51.716;7.016;2022-08-19T12:55:02;7.53;;;5.95;;
71836;SDS011;59686;51.716;7.016;2022-08-19T12:57:35;9.43;;;6.13;;
71836;SDS011;59686;51.716;7.016;2022-08-19T13:00:12;7.00;;;5.80;;
71836;SDS011;59686;51.716;7.016;2022-08-19T13:02:45;6.25;;;5.65;;
71836;SDS011;59686;51.716;7.016;2022-08-19T13:05:16;7.43;;;5.60;;
71836;SDS011;59686;51.716;7.016;2022-08-19T13:07:56;8.35;;;5.32;;
71836;SDS011;59686;51.716;7.016;2022-08-19T13:13:06;6.90;;;5.25;;
71836;SDS011;59686;51.716;7.016;2022-08-19T13:18:14;6.82;;;5.88;;
71836;SDS011;59686;51.716;7.016;2022-08-19T13:20:40;8.88;;;5.63;;
71836;SDS011;59686;51.716;7.016;2022-08-19T13:23:07;6.63;;;5.07;;
71836;SDS011;59686;51.716;7.016;2022-08-19T13:25:34;7.05;;;5.55;;
71836;SDS011;59686;51.716;7.016;2022-08-19T13:28:01;5.93;;;4.88;;
71836;SDS011;59686;51.716;7.016;2022-08-19T13:30:27;6.55;;;5.10;;
71836;SDS011;59686;51.716;7.016;2022-08-19T13:36:06;6.78;;;4.85;;
71836;SDS011;59686;51.716;7.016;2022-08-19T13:38:32;5.47;;;4.97;;
71836;SDS011;59686;51.716;7.016;2022-08-19T13:41:03;6.95;;;5.13;;
71836;SDS011;59686;51.716;7.016;2022-08-19T13:43:36;5.57;;;4.85;;
71836;SDS011;59686;51.716;7.016;2022-08-19T13:46:07;6.78;;;4.78;;
71836;SDS011;59686;51.716;7.016;2022-08-19T13:48:34;5.75;;;4.65;;
71836;SDS011;59686;51.716;7.016;2022-08-19T13:51:00;7.70;;;5.03;;
71836;SDS011;59686;51.716;7.016;2022-08-19T13:53:27;7.65;;;5.10;;
71836;SDS011;59686;51.716;7.016;2022-08-19T13:55:52;7.47;;;5.10;;
71836;SDS011;59686;51.716;7.016;2022-08-19T13:58:19;4.90;;;4.05;;
71836;SDS011;59686;51.716;7.016;2022-08-19T14:00:50;8.23;;;4.93;;
71836;SDS011;59686;51.716;7.016;2022-08-19T14:03:23;5.10;;;4.70;;
71836;SDS011;59686;51.716;7.016;2022-08-19T14:05:51;6.90;;;4.50;;
71836;SDS011;59686;51.716;7.016;2022-08-19T14:08:17;7.75;;;4.80;;
71836;SDS011;59686;51.716;7.016;2022-08-19T14:10:49;5.68;;;4.60;;
71836;SDS011;59686;51.716;7.016;2022-08-19T14:13:16;5.50;;;4.85;;
71836;SDS011;59686;51.716;7.016;2022-08-19T14:15:45;6.72;;;5.63;;
71836;SDS011;59686;51.716;7.016;2022-08-19T14:18:12;7.30;;;5.72;;
71836;SDS011;59686;51.716;7.016;2022-08-19T14:23:30;9.27;;;7.05;;
71836;SDS011;59686;51.716;7.016;2022-08-19T14:26:07;7.28;;;6.28;;
71836;SDS011;59686;51.716;7.016;2022-08-19T14:28:38;13.15;;;6.80;;
71836;SDS011;59686;51.716;7.016;2022-08-19T14:31:11;7.15;;;6.30;;
71836;SDS011;59686;51.716;7.016;2022-08-19T14:33:38;7.65;;;6.72;;
71836;SDS011;59686;51.716;7.016;2022-08-19T14:36:17;9.82;;;7.00;;
71836;SDS011;59686;51.716;7.016;2022-08-19T14:38:47;10.48;;;7.20;;
71836;SDS011;59686;51.716;7.016;2022-08-19T14:41:20;10.57;;;7.32;;
71836;SDS011;59686;51.716;7.016;2022-08-19T14:44:06;9.52;;;6.97;;
71836;SDS011;59686;51.716;7.016;2022-08-19T14:46:31;8.48;;;7.45;;
71836;SDS011;59686;51.716;7.016;2022-08-19T14:49:00;7.90;;;6.90;;
71836;SDS011;59686;51.716;7.016;2022-08-19T14:51:28;11.00;;;6.40;;
71836;SDS011;59686;51.716;7.016;2022-08-19T14:53:54;10.93;;;7.13;;
71836;SDS011;59686;51.716;7.016;2022-08-19T14:56:25;8.82;;;7.22;;
71836;SDS011;59686;51.716;7.016;2022-08-19T14:58:54;8.93;;;6.50;;
71836;SDS011;59686;51.716;7.016;2022-08-19T15:01:38;7.82;;;7.05;;
71836;SDS011;59686;51.716;7.016;2022-08-19T15:04:20;8.52;;;7.00;;
71836;SDS011;59686;51.716;7.016;2022-08-19T15:06:45;10.35;;;7.38;;
71836;SDS011;59686;51.716;7.016;2022-08-19T15:09:22;8.43;;;7.60;;
71836;SDS011;59686;51.716;7.016;2022-08-19T15:11:48;9.48;;;7.22;;
71836;SDS011;59686;51.716;7.016;2022-08-19T15:14:15;10.25;;;7.35;;
71836;SDS011;59686;51.716;7.016;2022-08-19T15:16:48;8.20;;;7.47;;
71836;SDS011;59686;51.716;7.016;2022-08-19T15:19:17;7.53;;;6.82;;
71836;SDS011;59686;51.716;7.016;2022-08-19T15:21:53;8.20;;;6.90;;
71836;SDS011;59686;51.716;7.016;2022-08-19T15:24:19;8.23;;;6.97;;
71836;SDS011;59686;51.716;7.016;2022-08-19T15:29:21;7.97;;;6.85;;
71836;SDS011;59686;51.716;7.016;2022-08-19T15:31:51;8.30;;;6.65;;
71836;SDS011;59686;51.716;7.016;2022-08-19T15:34:20;7.18;;;6.47;;
71836;SDS011;59686;51.716;7.016;2022-08-19T15:36:55;7.30;;;6.60;;
71836;SDS011;59686;51.716;7.016;2022-08-19T15:39:29;7.18;;;6.47;;
71836;SDS011;59686;51.716;7.016;2022-08-19T15:41:55;7.53;;;6.75;;
71836;SDS011;59686;51.716;7.016;2022-08-19T15:44:22;8.57;;;7.07;;
71836;SDS011;59686;51.716;7.016;2022-08-19T15:46:47;7.18;;;6.47;;
71836;SDS011;59686;51.716;7.016;2022-08-19T15:49:23;8.68;;;6.75;;
71836;SDS011;59686;51.716;7.016;2022-08-19T15:51:53;8.07;;;6.75;;
71836;SDS011;59686;51.716;7.016;2022-08-19T15:54:22;6.65;;;6.05;;
71836;SDS011;59686;51.716;7.016;2022-08-19T15:56:49;7.97;;;6.60;;
71836;SDS011;59686;51.716;7.016;2022-08-19T15:59:51;6.75;;;6.05;;
71836;SDS011;59686;51.716;7.016;2022-08-19T16:02:35;6.50;;;5.90;;
71836;SDS011;59686;51.716;7.016;2022-08-19T16:05:21;7.55;;;6.43;;
71836;SDS011;59686;51.716;7.016;2022-08-19T16:08:09;7.78;;;6.03;;
71836;SDS011;59686;51.716;7.016;2022-08-19T16:10:35;7.95;;;6.40;;
71836;SDS011;59686;51.716;7.016;2022-08-19T16:13:14;6.57;;;5.93;;
71836;SDS011;59686;51.716;7.016;2022-08-19T16:15:40;8.27;;;6.60;;
71836;SDS011;59686;51.716;7.016;2022-08-19T16:18:07;7.05;;;6.35;;
71836;SDS011;59686;51.716;7.016;2022-08-19T16:20:32;6.55;;;5.93;;
71836;SDS011;59686;51.716;7.016;2022-08-19T16:22:59;9.48;;;6.65;;
71836;SDS011;59686;51.716;7.016;2022-08-19T16:25:27;7.50;;;6.13;;
71836;SDS011;59686;51.716;7.016;2022-08-19T16:27:54;6.80;;;6.20;;
71836;SDS011;59686;51.716;7.016;2022-08-19T16:30:22;6.57;;;5.95;;
71836;SDS011;59686;51.716;7.016;2022-08-19T16:32:48;6.95;;;6.10;;
71836;SDS011;59686;51.716;7.016;2022-08-19T16:35:14;7.45;;;6.13;;